sensor_id;sensor_type;location;lat;lon;timestamp;P1;durP1;ratioP1;P2;durP2;ratioP2
11548;SDS011;61444;59.472;18.306;2023-06-22T00:02:06;11.50;;;10.40;;
11548;SDS011;61444;59.472;18.306;2023-06-22T00:04:17;10.83;;;9.83;;
11548;SDS011;61444;59.472;18.306;2023-06-22T00:06:28;11.37;;;10.37;;
11548;SDS011;61444;59.472;18.306;2023-06-22T00:08:39;11.27;;;10.10;;
11548;SDS011;61444;59.472;18.306;2023-06-22T00:10:48;11.33;;;10.37;;
11548;SDS011;61444;59.472;18.306;2023-06-22T00:12:59;10.70;;;9.80;;
11548;SDS011;61444;59.472;18.306;2023-06-22T00:15:08;11.03;;;10.17;;
11548;SDS011;61444;59.472;18.306;2023-06-22T00:17:18;10.60;;;9.70;;
11548;SDS011;61444;59.472;18.306;2023-06-22T00:19:27;10.53;;;9.63;;
11548;SDS011;61444;59.472;18.306;2023-06-22T00:21:40;11.00;;;10.10;;
11548;SDS011;61444;59.472;18.306;2023-06-22T00:23:56;10.80;;;10.00;;
11548;SDS011;61444;59.472;18.306;2023-06-22T00:26:05;10.47;;;9.57;;
11548;SDS011;61444;59.472;18.306;2023-06-22T00:28:14;11.17;;;10.30;;
11548;SDS011;61444;59.472;18.306;2023-06-22T00:30:24;11.07;;;10.07;;
11548;SDS011;61444;59.472;18.306;2023-06-22T00:32:34;10.70;;;9.70;;
11548;SDS011;61444;59.472;18.306;2023-06-22T00:34:44;10.83;;;9.97;;
11548;SDS011;61444;59.472;18.306;2023-06-22T00:36:54;10.80;;;9.90;;
11548;SDS011;61444;59.472;18.306;2023-06-22T00:39:04;10.73;;;9.80;;
11548;SDS011;61444;59.472;18.306;2023-06-22T00:41:14;10.90;;;10.00;;
11548;SDS011;61444;59.472;18.306;2023-06-22T00:43:23;10.47;;;9.57;;
11548;SDS011;61444;59.472;18.306;2023-06-22T00:45:33;11.00;;;10.00;;
11548;SDS011;61444;59.472;18.306;2023-06-22T00:47:42;10.10;;;9.30;;
11548;SDS011;61444;59.472;18.306;2023-06-22T00:49:53;10.37;;;9.57;;
11548;SDS011;61444;59.472;18.306;2023-06-22T00:52:02;10.47;;;9.60;;
11548;SDS011;61444;59.472;18.306;2023-06-22T00:54:12;10.87;;;9.77;;
11548;SDS011;61444;59.472;18.306;2023-06-22T00:56:22;11.30;;;10.40;;
11548;SDS011;61444;59.472;18.306;2023-06-22T00:58:32;10.40;;;9.60;;
11548;SDS011;61444;59.472;18.306;2023-06-22T01:00:41;11.03;;;10.00;;
11548;SDS011;61444;59.472;18.306;2023-06-22T01:02:51;10.97;;;10.07;;
11548;SDS011;61444;59.472;18.306;2023-06-22T01:05:01;11.60;;;10.60;;
11548;SDS011;61444;59.472;18.306;2023-06-22T01:07:13;10.90;;;10.00;;
11548;SDS011;61444;59.472;18.306;2023-06-22T01:09:32;11.37;;;10.57;;
11548;SDS011;61444;59.472;18.306;2023-06-22T01:11:48;11.43;;;10.40;;
11548;SDS011;61444;59.472;18.306;2023-06-22T01:14:03;11.10;;;10.20;;
11548;SDS011;61444;59.472;18.306;2023-06-22T01:16:17;10.87;;;9.97;;
11548;SDS011;61444;59.472;18.306;2023-06-22T01:18:29;11.80;;;10.70;;
11548;SDS011;61444;59.472;18.306;2023-06-22T01:20:42;11.27;;;10.33;;
11548;SDS011;61444;59.472;18.306;2023-06-22T01:22:59;12.33;;;11.20;;
11548;SDS011;61444;59.472;18.306;2023-06-22T01:25:13;11.30;;;10.30;;
11548;SDS011;61444;59.472;18.306;2023-06-22T01:27:39;10.73;;;9.83;;
11548;SDS011;61444;59.472;18.306;2023-06-22T01:29:55;11.53;;;10.40;;
11548;SDS011;61444;59.472;18.306;2023-06-22T01:32:08;10.73;;;9.73;;
11548;SDS011;61444;59.472;18.306;2023-06-22T01:34:19;11.60;;;9.80;;
11548;SDS011;61444;59.472;18.306;2023-06-22T01:36:31;10.73;;;9.87;;
11548;SDS011;61444;59.472;18.306;2023-06-22T01:38:42;11.10;;;10.10;;
11548;SDS011;61444;59.472;18.306;2023-06-22T01:40:52;10.97;;;9.87;;
11548;SDS011;61444;59.472;18.306;2023-06-22T01:43:02;11.17;;;10.27;;
11548;SDS011;61444;59.472;18.306;2023-06-22T01:45:15;11.30;;;10.13;;
11548;SDS011;61444;59.472;18.306;2023-06-22T01:47:24;10.97;;;10.07;;
11548;SDS011;61444;59.472;18.306;2023-06-22T01:49:38;10.97;;;10.07;;
11548;SDS011;61444;59.472;18.306;2023-06-22T01:51:50;10.53;;;9.63;;
11548;SDS011;61444;59.472;18.306;2023-06-22T01:54:00;11.87;;;10.77;;
11548;SDS011;61444;59.472;18.306;2023-06-22T01:56:10;11.13;;;10.23;;
11548;SDS011;61444;59.472;18.306;2023-06-22T01:58:19;10.80;;;9.80;;
11548;SDS011;61444;59.472;18.306;2023-06-22T02:00:32;11.40;;;10.33;;
11548;SDS011;61444;59.472;18.306;2023-06-22T02:02:43;11.67;;;10.67;;
11548;SDS011;61444;59.472;18.306;2023-06-22T02:04:59;10.77;;;9.87;;
11548;SDS011;61444;59.472;18.306;2023-06-22T02:07:12;10.93;;;10.00;;
11548;SDS011;61444;59.472;18.306;2023-06-22T02:09:23;11.87;;;10.77;;
11548;SDS011;61444;59.472;18.306;2023-06-22T02:11:37;11.50;;;10.57;;
11548;SDS011;61444;59.472;18.306;2023-06-22T02:13:46;11.90;;;10.70;;
11548;SDS011;61444;59.472;18.306;2023-06-22T02:15:58;12.93;;;11.77;;
11548;SDS011;61444;59.472;18.306;2023-06-22T02:18:07;12.50;;;11.40;;
11548;SDS011;61444;59.472;18.306;2023-06-22T02:20:17;12.50;;;11.50;;
11548;SDS011;61444;59.472;18.306;2023-06-22T02:22:27;12.03;;;10.97;;
11548;SDS011;61444;59.472;18.306;2023-06-22T02:24:37;11.97;;;10.97;;
11548;SDS011;61444;59.472;18.306;2023-06-22T02:26:47;13.47;;;12.27;;
11548;SDS011;61444;59.472;18.306;2023-06-22T02:28:57;14.20;;;12.90;;
11548;SDS011;61444;59.472;18.306;2023-06-22T02:31:08;13.23;;;12.03;;
11548;SDS011;61444;59.472;18.306;2023-06-22T02:33:17;12.93;;;11.73;;
11548;SDS011;61444;59.472;18.306;2023-06-22T02:35:27;13.97;;;12.70;;
11548;SDS011;61444;59.472;18.306;2023-06-22T02:37:38;13.63;;;12.43;;
11548;SDS011;61444;59.472;18.306;2023-06-22T02:39:48;13.97;;;12.67;;
11548;SDS011;61444;59.472;18.306;2023-06-22T02:41:58;13.20;;;12.10;;
11548;SDS011;61444;59.472;18.306;2023-06-22T02:44:07;13.47;;;12.23;;
11548;SDS011;61444;59.472;18.306;2023-06-22T02:46:18;13.33;;;12.07;;
11548;SDS011;61444;59.472;18.306;2023-06-22T02:48:28;12.80;;;11.73;;
11548;SDS011;61444;59.472;18.306;2023-06-22T02:50:37;12.70;;;11.60;;
11548;SDS011;61444;59.472;18.306;2023-06-22T02:52:47;13.07;;;11.83;;
11548;SDS011;61444;59.472;18.306;2023-06-22T02:54:55;13.13;;;12.03;;
11548;SDS011;61444;59.472;18.306;2023-06-22T02:57:05;13.90;;;12.60;;
11548;SDS011;61444;59.472;18.306;2023-06-22T02:59:20;13.53;;;12.30;;
11548;SDS011;61444;59.472;18.306;2023-06-22T03:01:32;14.23;;;12.77;;
11548;SDS011;61444;59.472;18.306;2023-06-22T03:03:47;13.33;;;12.13;;
11548;SDS011;61444;59.472;18.306;2023-06-22T03:05:56;13.27;;;12.07;;
11548;SDS011;61444;59.472;18.306;2023-06-22T03:08:08;12.83;;;11.67;;
11548;SDS011;61444;59.472;18.306;2023-06-22T03:10:18;13.83;;;12.57;;
11548;SDS011;61444;59.472;18.306;2023-06-22T03:12:28;12.77;;;11.67;;
11548;SDS011;61444;59.472;18.306;2023-06-22T03:14:43;13.03;;;11.83;;
11548;SDS011;61444;59.472;18.306;2023-06-22T03:16:53;13.30;;;12.10;;
11548;SDS011;61444;59.472;18.306;2023-06-22T03:19:12;13.77;;;12.47;;
11548;SDS011;61444;59.472;18.306;2023-06-22T03:21:22;12.73;;;11.53;;
11548;SDS011;61444;59.472;18.306;2023-06-22T03:23:31;13.40;;;12.20;;
11548;SDS011;61444;59.472;18.306;2023-06-22T03:25:42;13.80;;;12.50;;
11548;SDS011;61444;59.472;18.306;2023-06-22T03:27:54;13.03;;;11.83;;
11548;SDS011;61444;59.472;18.306;2023-06-22T03:30:05;13.60;;;12.20;;
11548;SDS011;61444;59.472;18.306;2023-06-22T03:32:16;13.03;;;11.57;;
11548;SDS011;61444;59.472;18.306;2023-06-22T03:34:26;12.70;;;11.53;;
11548;SDS011;61444;59.472;18.306;2023-06-22T03:36:41;12.77;;;11.57;;
11548;SDS011;61444;59.472;18.306;2023-06-22T03:38:51;12.37;;;11.27;;
11548;SDS011;61444;59.472;18.306;2023-06-22T03:41:00;12.97;;;11.77;;
11548;SDS011;61444;59.472;18.306;2023-06-22T03:43:10;12.90;;;11.60;;
11548;SDS011;61444;59.472;18.306;2023-06-22T03:45:20;12.60;;;11.40;;
11548;SDS011;61444;59.472;18.306;2023-06-22T03:47:32;12.73;;;11.53;;
11548;SDS011;61444;59.472;18.306;2023-06-22T03:49:40;12.33;;;11.20;;
11548;SDS011;61444;59.472;18.306;2023-06-22T03:51:49;12.67;;;11.57;;
11548;SDS011;61444;59.472;18.306;2023-06-22T03:53:59;11.57;;;10.57;;
11548;SDS011;61444;59.472;18.306;2023-06-22T03:56:08;12.63;;;11.50;;
11548;SDS011;61444;59.472;18.306;2023-06-22T03:58:17;12.27;;;11.07;;
11548;SDS011;61444;59.472;18.306;2023-06-22T04:00:29;11.73;;;10.63;;
11548;SDS011;61444;59.472;18.306;2023-06-22T04:02:41;12.57;;;11.43;;
11548;SDS011;61444;59.472;18.306;2023-06-22T04:04:49;11.87;;;10.77;;
11548;SDS011;61444;59.472;18.306;2023-06-22T04:06:59;12.20;;;11.20;;
11548;SDS011;61444;59.472;18.306;2023-06-22T04:09:09;11.53;;;10.43;;
11548;SDS011;61444;59.472;18.306;2023-06-22T04:11:19;12.83;;;11.53;;
11548;SDS011;61444;59.472;18.306;2023-06-22T04:13:28;11.60;;;10.43;;
11548;SDS011;61444;59.472;18.306;2023-06-22T04:15:37;12.70;;;11.50;;
11548;SDS011;61444;59.472;18.306;2023-06-22T04:17:48;11.43;;;10.23;;
11548;SDS011;61444;59.472;18.306;2023-06-22T04:19:58;12.17;;;11.07;;
11548;SDS011;61444;59.472;18.306;2023-06-22T04:22:06;11.77;;;10.67;;
11548;SDS011;61444;59.472;18.306;2023-06-22T04:24:16;12.17;;;11.03;;
11548;SDS011;61444;59.472;18.306;2023-06-22T04:26:25;11.60;;;10.60;;
11548;SDS011;61444;59.472;18.306;2023-06-22T04:28:34;11.27;;;10.13;;
11548;SDS011;61444;59.472;18.306;2023-06-22T04:30:43;11.50;;;10.60;;
11548;SDS011;61444;59.472;18.306;2023-06-22T04:32:57;11.63;;;10.43;;
11548;SDS011;61444;59.472;18.306;2023-06-22T04:35:08;12.00;;;10.90;;
11548;SDS011;61444;59.472;18.306;2023-06-22T04:37:17;11.33;;;10.33;;
11548;SDS011;61444;59.472;18.306;2023-06-22T04:39:29;11.03;;;10.03;;
11548;SDS011;61444;59.472;18.306;2023-06-22T04:41:39;11.20;;;10.20;;
11548;SDS011;61444;59.472;18.306;2023-06-22T04:43:51;10.50;;;9.50;;
11548;SDS011;61444;59.472;18.306;2023-06-22T04:46:04;11.50;;;10.47;;
11548;SDS011;61444;59.472;18.306;2023-06-22T04:48:15;10.93;;;10.03;;
11548;SDS011;61444;59.472;18.306;2023-06-22T04:50:26;10.90;;;9.93;;
11548;SDS011;61444;59.472;18.306;2023-06-22T04:52:37;11.23;;;10.23;;
11548;SDS011;61444;59.472;18.306;2023-06-22T04:54:45;11.40;;;10.40;;
11548;SDS011;61444;59.472;18.306;2023-06-22T04:56:57;11.37;;;10.30;;
11548;SDS011;61444;59.472;18.306;2023-06-22T04:59:07;11.50;;;10.50;;
11548;SDS011;61444;59.472;18.306;2023-06-22T05:01:19;11.23;;;10.30;;
11548;SDS011;61444;59.472;18.306;2023-06-22T05:03:31;12.20;;;11.03;;
11548;SDS011;61444;59.472;18.306;2023-06-22T05:05:44;11.43;;;10.47;;
11548;SDS011;61444;59.472;18.306;2023-06-22T05:07:53;12.10;;;10.90;;
11548;SDS011;61444;59.472;18.306;2023-06-22T05:10:07;11.80;;;10.80;;
11548;SDS011;61444;59.472;18.306;2023-06-22T05:12:18;11.97;;;10.87;;
11548;SDS011;61444;59.472;18.306;2023-06-22T05:14:28;12.10;;;11.00;;
11548;SDS011;61444;59.472;18.306;2023-06-22T05:16:37;10.93;;;10.03;;
11548;SDS011;61444;59.472;18.306;2023-06-22T05:18:50;11.23;;;10.23;;
11548;SDS011;61444;59.472;18.306;2023-06-22T05:21:03;10.53;;;9.63;;
11548;SDS011;61444;59.472;18.306;2023-06-22T05:23:12;11.93;;;10.93;;
11548;SDS011;61444;59.472;18.306;2023-06-22T05:25:21;11.60;;;10.60;;
11548;SDS011;61444;59.472;18.306;2023-06-22T05:27:32;11.97;;;11.03;;
11548;SDS011;61444;59.472;18.306;2023-06-22T05:29:48;12.97;;;11.87;;
11548;SDS011;61444;59.472;18.306;2023-06-22T05:31:57;11.73;;;10.70;;
11548;SDS011;61444;59.472;18.306;2023-06-22T05:34:08;11.97;;;10.77;;
11548;SDS011;61444;59.472;18.306;2023-06-22T05:36:19;11.47;;;10.57;;
11548;SDS011;61444;59.472;18.306;2023-06-22T05:38:32;12.30;;;11.20;;
11548;SDS011;61444;59.472;18.306;2023-06-22T05:40:43;12.03;;;10.93;;
11548;SDS011;61444;59.472;18.306;2023-06-22T05:42:52;11.50;;;10.50;;
11548;SDS011;61444;59.472;18.306;2023-06-22T05:45:02;11.43;;;10.40;;
11548;SDS011;61444;59.472;18.306;2023-06-22T05:47:12;12.13;;;11.03;;
11548;SDS011;61444;59.472;18.306;2023-06-22T05:49:22;11.10;;;10.10;;
11548;SDS011;61444;59.472;18.306;2023-06-22T05:51:36;10.70;;;9.90;;
11548;SDS011;61444;59.472;18.306;2023-06-22T05:53:45;11.20;;;10.10;;
11548;SDS011;61444;59.472;18.306;2023-06-22T05:55:56;11.20;;;10.10;;
11548;SDS011;61444;59.472;18.306;2023-06-22T05:58:04;11.60;;;10.70;;
11548;SDS011;61444;59.472;18.306;2023-06-22T06:00:14;10.53;;;9.67;;
11548;SDS011;61444;59.472;18.306;2023-06-22T06:02:23;11.60;;;10.60;;
11548;SDS011;61444;59.472;18.306;2023-06-22T06:04:33;11.70;;;10.80;;
11548;SDS011;61444;59.472;18.306;2023-06-22T06:06:42;12.03;;;11.10;;
11548;SDS011;61444;59.472;18.306;2023-06-22T06:08:51;12.13;;;11.07;;
11548;SDS011;61444;59.472;18.306;2023-06-22T06:11:00;11.87;;;10.87;;
11548;SDS011;61444;59.472;18.306;2023-06-22T06:13:10;12.00;;;10.87;;
11548;SDS011;61444;59.472;18.306;2023-06-22T06:15:20;10.90;;;10.00;;
11548;SDS011;61444;59.472;18.306;2023-06-22T06:17:28;8.73;;;8.13;;
11548;SDS011;61444;59.472;18.306;2023-06-22T06:19:39;8.67;;;7.97;;
11548;SDS011;61444;59.472;18.306;2023-06-22T06:21:48;8.93;;;8.23;;
11548;SDS011;61444;59.472;18.306;2023-06-22T06:23:58;9.80;;;7.20;;
11548;SDS011;61444;59.472;18.306;2023-06-22T06:26:08;8.90;;;7.30;;
11548;SDS011;61444;59.472;18.306;2023-06-22T06:28:17;8.00;;;7.30;;
11548;SDS011;61444;59.472;18.306;2023-06-22T06:30:28;6.73;;;5.80;;
11548;SDS011;61444;59.472;18.306;2023-06-22T06:32:40;7.10;;;6.10;;
11548;SDS011;61444;59.472;18.306;2023-06-22T06:34:54;6.93;;;6.33;;
11548;SDS011;61444;59.472;18.306;2023-06-22T06:37:03;7.33;;;6.73;;
11548;SDS011;61444;59.472;18.306;2023-06-22T06:39:14;7.50;;;6.80;;
11548;SDS011;61444;59.472;18.306;2023-06-22T06:41:26;7.10;;;6.40;;
11548;SDS011;61444;59.472;18.306;2023-06-22T06:43:37;10.20;;;6.33;;
11548;SDS011;61444;59.472;18.306;2023-06-22T06:45:47;6.37;;;5.87;;
11548;SDS011;61444;59.472;18.306;2023-06-22T06:47:58;6.80;;;6.20;;
11548;SDS011;61444;59.472;18.306;2023-06-22T06:50:12;6.70;;;6.10;;
11548;SDS011;61444;59.472;18.306;2023-06-22T06:52:21;7.33;;;6.67;;
11548;SDS011;61444;59.472;18.306;2023-06-22T06:54:37;7.17;;;6.57;;
11548;SDS011;61444;59.472;18.306;2023-06-22T06:56:48;8.00;;;7.30;;
11548;SDS011;61444;59.472;18.306;2023-06-22T06:58:58;9.17;;;8.17;;
11548;SDS011;61444;59.472;18.306;2023-06-22T07:01:16;9.13;;;8.37;;
11548;SDS011;61444;59.472;18.306;2023-06-22T07:03:28;9.20;;;8.50;;
11548;SDS011;61444;59.472;18.306;2023-06-22T07:05:41;10.23;;;9.33;;
11548;SDS011;61444;59.472;18.306;2023-06-22T07:07:52;10.67;;;9.73;;
11548;SDS011;61444;59.472;18.306;2023-06-22T07:10:23;9.50;;;8.60;;
11548;SDS011;61444;59.472;18.306;2023-06-22T07:12:39;9.83;;;8.97;;
11548;SDS011;61444;59.472;18.306;2023-06-22T07:15:04;11.37;;;9.50;;
11548;SDS011;61444;59.472;18.306;2023-06-22T07:17:15;10.30;;;9.50;;
11548;SDS011;61444;59.472;18.306;2023-06-22T07:19:32;10.67;;;9.70;;
11548;SDS011;61444;59.472;18.306;2023-06-22T07:21:44;10.70;;;9.73;;
11548;SDS011;61444;59.472;18.306;2023-06-22T07:23:57;10.60;;;9.70;;
11548;SDS011;61444;59.472;18.306;2023-06-22T07:26:07;9.77;;;8.87;;
11548;SDS011;61444;59.472;18.306;2023-06-22T07:28:26;9.03;;;8.27;;
11548;SDS011;61444;59.472;18.306;2023-06-22T07:30:47;9.53;;;8.70;;
11548;SDS011;61444;59.472;18.306;2023-06-22T07:32:58;10.17;;;8.80;;
11548;SDS011;61444;59.472;18.306;2023-06-22T07:35:10;9.83;;;9.03;;
11548;SDS011;61444;59.472;18.306;2023-06-22T07:37:35;9.70;;;8.80;;
11548;SDS011;61444;59.472;18.306;2023-06-22T07:39:52;8.77;;;8.07;;
11548;SDS011;61444;59.472;18.306;2023-06-22T07:42:05;9.33;;;8.43;;
11548;SDS011;61444;59.472;18.306;2023-06-22T07:44:16;9.37;;;8.13;;
11548;SDS011;61444;59.472;18.306;2023-06-22T07:46:32;8.67;;;7.53;;
11548;SDS011;61444;59.472;18.306;2023-06-22T07:48:55;9.00;;;8.20;;
11548;SDS011;61444;59.472;18.306;2023-06-22T07:51:04;8.47;;;7.67;;
11548;SDS011;61444;59.472;18.306;2023-06-22T07:53:27;9.53;;;8.23;;
11548;SDS011;61444;59.472;18.306;2023-06-22T07:55:37;11.23;;;8.60;;
11548;SDS011;61444;59.472;18.306;2023-06-22T07:57:48;9.63;;;8.63;;
11548;SDS011;61444;59.472;18.306;2023-06-22T08:00:05;8.77;;;7.97;;
11548;SDS011;61444;59.472;18.306;2023-06-22T08:02:32;8.87;;;8.00;;
11548;SDS011;61444;59.472;18.306;2023-06-22T08:04:42;9.37;;;7.60;;
11548;SDS011;61444;59.472;18.306;2023-06-22T08:06:53;9.60;;;8.30;;
11548;SDS011;61444;59.472;18.306;2023-06-22T08:11:52;9.27;;;8.23;;
11548;SDS011;61444;59.472;18.306;2023-06-22T08:14:04;9.30;;;8.47;;
11548;SDS011;61444;59.472;18.306;2023-06-22T08:16:13;9.40;;;8.50;;
11548;SDS011;61444;59.472;18.306;2023-06-22T08:18:23;8.53;;;7.73;;
11548;SDS011;61444;59.472;18.306;2023-06-22T08:20:33;8.90;;;8.10;;
11548;SDS011;61444;59.472;18.306;2023-06-22T08:22:43;8.90;;;8.20;;
11548;SDS011;61444;59.472;18.306;2023-06-22T08:24:52;8.67;;;7.97;;
11548;SDS011;61444;59.472;18.306;2023-06-22T08:27:05;8.90;;;8.13;;
11548;SDS011;61444;59.472;18.306;2023-06-22T08:29:16;8.50;;;7.80;;
11548;SDS011;61444;59.472;18.306;2023-06-22T08:31:26;8.27;;;7.60;;
11548;SDS011;61444;59.472;18.306;2023-06-22T08:33:48;8.50;;;7.70;;
11548;SDS011;61444;59.472;18.306;2023-06-22T08:35:57;8.50;;;7.70;;
11548;SDS011;61444;59.472;18.306;2023-06-22T08:38:07;8.70;;;7.80;;
11548;SDS011;61444;59.472;18.306;2023-06-22T08:40:23;7.93;;;7.23;;
11548;SDS011;61444;59.472;18.306;2023-06-22T08:42:43;7.97;;;7.27;;
11548;SDS011;61444;59.472;18.306;2023-06-22T08:44:52;8.50;;;7.70;;
11548;SDS011;61444;59.472;18.306;2023-06-22T08:47:08;8.40;;;7.53;;
11548;SDS011;61444;59.472;18.306;2023-06-22T08:49:24;8.43;;;7.73;;
11548;SDS011;61444;59.472;18.306;2023-06-22T08:51:34;8.40;;;7.73;;
11548;SDS011;61444;59.472;18.306;2023-06-22T08:53:54;8.40;;;7.70;;
11548;SDS011;61444;59.472;18.306;2023-06-22T08:56:09;8.33;;;7.53;;
11548;SDS011;61444;59.472;18.306;2023-06-22T08:58:21;7.80;;;7.17;;
11548;SDS011;61444;59.472;18.306;2023-06-22T09:00:31;8.00;;;7.30;;
11548;SDS011;61444;59.472;18.306;2023-06-22T09:02:43;6.77;;;6.17;;
11548;SDS011;61444;59.472;18.306;2023-06-22T09:04:53;6.03;;;5.50;;
11548;SDS011;61444;59.472;18.306;2023-06-22T09:07:02;6.20;;;5.60;;
11548;SDS011;61444;59.472;18.306;2023-06-22T09:09:20;6.87;;;5.17;;
11548;SDS011;61444;59.472;18.306;2023-06-22T09:11:55;6.37;;;4.63;;
11548;SDS011;61444;59.472;18.306;2023-06-22T09:14:10;5.63;;;5.13;;
11548;SDS011;61444;59.472;18.306;2023-06-22T09:16:23;6.40;;;5.20;;
11548;SDS011;61444;59.472;18.306;2023-06-22T09:18:51;5.87;;;4.80;;
11548;SDS011;61444;59.472;18.306;2023-06-22T09:21:05;8.97;;;4.70;;
11548;SDS011;61444;59.472;18.306;2023-06-22T09:23:15;5.43;;;4.93;;
11548;SDS011;61444;59.472;18.306;2023-06-22T09:25:25;5.70;;;5.20;;
11548;SDS011;61444;59.472;18.306;2023-06-22T09:27:37;9.83;;;5.20;;
11548;SDS011;61444;59.472;18.306;2023-06-22T09:29:54;6.47;;;5.30;;
11548;SDS011;61444;59.472;18.306;2023-06-22T09:32:10;5.87;;;5.23;;
11548;SDS011;61444;59.472;18.306;2023-06-22T09:34:20;8.73;;;5.27;;
11548;SDS011;61444;59.472;18.306;2023-06-22T09:36:29;5.50;;;4.70;;
11548;SDS011;61444;59.472;18.306;2023-06-22T09:38:38;6.47;;;5.67;;
11548;SDS011;61444;59.472;18.306;2023-06-22T09:40:56;5.90;;;5.30;;
11548;SDS011;61444;59.472;18.306;2023-06-22T09:43:10;5.63;;;5.13;;
11548;SDS011;61444;59.472;18.306;2023-06-22T09:45:23;5.73;;;5.20;;
11548;SDS011;61444;59.472;18.306;2023-06-22T09:47:33;7.17;;;5.13;;
11548;SDS011;61444;59.472;18.306;2023-06-22T09:49:43;11.00;;;5.57;;
11548;SDS011;61444;59.472;18.306;2023-06-22T09:51:54;7.93;;;4.77;;
11548;SDS011;61444;59.472;18.306;2023-06-22T09:54:03;6.67;;;5.30;;
11548;SDS011;61444;59.472;18.306;2023-06-22T09:56:23;5.53;;;5.03;;
11548;SDS011;61444;59.472;18.306;2023-06-22T09:58:35;7.47;;;5.10;;
11548;SDS011;61444;59.472;18.306;2023-06-22T10:00:55;6.43;;;4.73;;
11548;SDS011;61444;59.472;18.306;2023-06-22T10:03:10;8.07;;;5.80;;
11548;SDS011;61444;59.472;18.306;2023-06-22T10:05:20;6.07;;;5.30;;
11548;SDS011;61444;59.472;18.306;2023-06-22T10:07:30;5.77;;;4.90;;
11548;SDS011;61444;59.472;18.306;2023-06-22T10:09:43;7.90;;;5.17;;
11548;SDS011;61444;59.472;18.306;2023-06-22T10:12:06;6.20;;;5.20;;
11548;SDS011;61444;59.472;18.306;2023-06-22T10:14:16;11.27;;;5.93;;
11548;SDS011;61444;59.472;18.306;2023-06-22T10:16:31;6.90;;;5.40;;
11548;SDS011;61444;59.472;18.306;2023-06-22T10:18:49;6.07;;;5.10;;
11548;SDS011;61444;59.472;18.306;2023-06-22T10:21:02;6.37;;;5.20;;
11548;SDS011;61444;59.472;18.306;2023-06-22T10:23:24;5.50;;;5.10;;
11548;SDS011;61444;59.472;18.306;2023-06-22T10:25:33;5.33;;;4.77;;
11548;SDS011;61444;59.472;18.306;2023-06-22T10:27:42;9.60;;;4.50;;
11548;SDS011;61444;59.472;18.306;2023-06-22T10:29:52;5.37;;;4.27;;
11548;SDS011;61444;59.472;18.306;2023-06-22T10:32:04;5.87;;;4.73;;
11548;SDS011;61444;59.472;18.306;2023-06-22T10:34:13;5.47;;;4.63;;
11548;SDS011;61444;59.472;18.306;2023-06-22T10:36:23;5.87;;;4.60;;
11548;SDS011;61444;59.472;18.306;2023-06-22T10:38:33;7.57;;;4.47;;
11548;SDS011;61444;59.472;18.306;2023-06-22T10:40:43;5.77;;;4.23;;
11548;SDS011;61444;59.472;18.306;2023-06-22T10:42:53;5.30;;;4.40;;
11548;SDS011;61444;59.472;18.306;2023-06-22T10:45:03;5.30;;;4.77;;
11548;SDS011;61444;59.472;18.306;2023-06-22T10:47:13;4.87;;;4.27;;
11548;SDS011;61444;59.472;18.306;2023-06-22T10:49:24;6.03;;;4.73;;
11548;SDS011;61444;59.472;18.306;2023-06-22T10:51:34;4.87;;;4.30;;
11548;SDS011;61444;59.472;18.306;2023-06-22T10:53:44;5.43;;;4.60;;
11548;SDS011;61444;59.472;18.306;2023-06-22T10:55:55;6.20;;;4.00;;
11548;SDS011;61444;59.472;18.306;2023-06-22T10:58:05;5.57;;;4.03;;
11548;SDS011;61444;59.472;18.306;2023-06-22T11:00:31;5.40;;;4.50;;
11548;SDS011;61444;59.472;18.306;2023-06-22T11:02:43;4.97;;;4.10;;
11548;SDS011;61444;59.472;18.306;2023-06-22T11:04:53;6.27;;;4.40;;
11548;SDS011;61444;59.472;18.306;2023-06-22T11:07:03;5.40;;;4.40;;
11548;SDS011;61444;59.472;18.306;2023-06-22T11:09:13;4.40;;;4.00;;
11548;SDS011;61444;59.472;18.306;2023-06-22T11:11:33;4.10;;;3.70;;
11548;SDS011;61444;59.472;18.306;2023-06-22T11:13:42;4.67;;;3.70;;
11548;SDS011;61444;59.472;18.306;2023-06-22T11:15:51;11.17;;;3.97;;
11548;SDS011;61444;59.472;18.306;2023-06-22T11:18:14;4.60;;;3.87;;
11548;SDS011;61444;59.472;18.306;2023-06-22T11:20:24;5.27;;;4.10;;
11548;SDS011;61444;59.472;18.306;2023-06-22T11:22:34;7.57;;;4.10;;
11548;SDS011;61444;59.472;18.306;2023-06-22T11:24:43;6.30;;;3.97;;
11548;SDS011;61444;59.472;18.306;2023-06-22T11:26:53;4.70;;;4.17;;
11548;SDS011;61444;59.472;18.306;2023-06-22T11:29:05;5.30;;;3.50;;
11548;SDS011;61444;59.472;18.306;2023-06-22T11:31:19;3.67;;;3.37;;
11548;SDS011;61444;59.472;18.306;2023-06-22T11:33:34;5.53;;;4.10;;
11548;SDS011;61444;59.472;18.306;2023-06-22T11:35:44;6.00;;;3.80;;
11548;SDS011;61444;59.472;18.306;2023-06-22T11:37:53;5.17;;;3.03;;
11548;SDS011;61444;59.472;18.306;2023-06-22T11:40:03;3.97;;;3.67;;
11548;SDS011;61444;59.472;18.306;2023-06-22T11:42:16;6.87;;;3.73;;
11548;SDS011;61444;59.472;18.306;2023-06-22T11:44:27;4.73;;;4.23;;
11548;SDS011;61444;59.472;18.306;2023-06-22T11:46:36;4.60;;;3.73;;
11548;SDS011;61444;59.472;18.306;2023-06-22T11:48:48;4.10;;;3.70;;
11548;SDS011;61444;59.472;18.306;2023-06-22T11:50:58;4.40;;;4.00;;
11548;SDS011;61444;59.472;18.306;2023-06-22T11:53:11;4.23;;;3.53;;
11548;SDS011;61444;59.472;18.306;2023-06-22T11:55:23;6.17;;;4.00;;
11548;SDS011;61444;59.472;18.306;2023-06-22T11:57:33;6.30;;;3.83;;
11548;SDS011;61444;59.472;18.306;2023-06-22T11:59:43;9.27;;;4.00;;
11548;SDS011;61444;59.472;18.306;2023-06-22T12:01:52;6.43;;;4.00;;
11548;SDS011;61444;59.472;18.306;2023-06-22T12:04:03;4.33;;;3.97;;
11548;SDS011;61444;59.472;18.306;2023-06-22T12:06:13;3.97;;;3.63;;
11548;SDS011;61444;59.472;18.306;2023-06-22T12:08:21;4.43;;;4.00;;
11548;SDS011;61444;59.472;18.306;2023-06-22T12:10:36;4.70;;;4.20;;
11548;SDS011;61444;59.472;18.306;2023-06-22T12:12:45;4.20;;;3.80;;
11548;SDS011;61444;59.472;18.306;2023-06-22T12:14:54;4.43;;;4.03;;
11548;SDS011;61444;59.472;18.306;2023-06-22T12:17:04;4.90;;;3.87;;
11548;SDS011;61444;59.472;18.306;2023-06-22T12:19:17;7.17;;;4.40;;
11548;SDS011;61444;59.472;18.306;2023-06-22T12:21:26;8.00;;;3.90;;
11548;SDS011;61444;59.472;18.306;2023-06-22T12:23:35;4.73;;;3.73;;
11548;SDS011;61444;59.472;18.306;2023-06-22T12:25:45;5.37;;;3.63;;
11548;SDS011;61444;59.472;18.306;2023-06-22T12:28:00;4.33;;;3.63;;
11548;SDS011;61444;59.472;18.306;2023-06-22T12:30:13;4.23;;;3.83;;
11548;SDS011;61444;59.472;18.306;2023-06-22T12:32:25;5.53;;;3.67;;
11548;SDS011;61444;59.472;18.306;2023-06-22T12:34:37;3.97;;;3.63;;
11548;SDS011;61444;59.472;18.306;2023-06-22T12:36:47;6.47;;;3.80;;
11548;SDS011;61444;59.472;18.306;2023-06-22T12:38:58;6.00;;;3.67;;
11548;SDS011;61444;59.472;18.306;2023-06-22T12:41:08;4.67;;;3.60;;
11548;SDS011;61444;59.472;18.306;2023-06-22T12:43:18;5.43;;;3.50;;
11548;SDS011;61444;59.472;18.306;2023-06-22T12:45:28;5.83;;;3.80;;
11548;SDS011;61444;59.472;18.306;2023-06-22T12:47:41;3.90;;;3.43;;
11548;SDS011;61444;59.472;18.306;2023-06-22T12:49:55;4.27;;;3.50;;
11548;SDS011;61444;59.472;18.306;2023-06-22T12:52:08;5.77;;;3.67;;
11548;SDS011;61444;59.472;18.306;2023-06-22T12:54:18;4.00;;;3.70;;
11548;SDS011;61444;59.472;18.306;2023-06-22T12:56:28;4.83;;;4.00;;